Home > Products > Valid Products > TAF

000
FTUS42 KMHX 060540
TAFEWN
TAF
KEWN 060540Z 0606/0706 26004KT 6SM SHRA BKN007
     FM061500 29007KT P6SM BKN015
     FM062000 30007KT P6SM BKN025
     FM062300 29004KT P6SM SCT040=



000
FTUS42 KMHX 052358 AAA
TAFEWN
TAF AMD
KEWN 052358Z 0600/0624 36007KT P6SM VCSH BKN025
      TEMPO 0600/0602 BKN008
     FM060500 VRB03KT P6SM VCSH BKN008
     FM061200 27006KT P6SM VCSH OVC015
     FM061500 29007KT P6SM OVC025
     FM061800 29007KT P6SM VCSH BKN040=



000
FTUS42 KMHX 052358 AAA
TAFEWN
TAF AMD
KEWN 052358Z 0600/0624 36007KT P6SM VCSH BKN025
      TEMPO 0600/0602 BKN008
     FM060500 VRB03KT P6SM VCSH BKN008
     FM061200 27006KT P6SM VCSH OVC015
     FM061500 29007KT P6SM OVC025
     FM061800 29007KT P6SM VCSH BKN040=



000
FTUS42 KMHX 052340
TAFEWN
TAF
KEWN 052340Z 0600/0624 36007KT P6SM VCSH BKN025
     FM060500 VRB03KT P6SM VCSH BKN008
     FM061200 27006KT P6SM VCSH OVC015
     FM061500 29007KT P6SM OVC025
     FM061800 29007KT P6SM VCSH BKN040=



000
FTUS42 KMHX 052035 CCA
TAFEWN
TAF COR
KEWN 052035Z 0521/0618 03009KT P6SM SHRA OVC025
      TEMPO 0521/0522 5SM RA BKN009
     FM060100 VRB04KT 6SM BR BKN015
     FM060500 34005KT 6SM BR OVC007
     FM061600 29007KT P6SM OVC020=



000
FTUS42 KMHX 052035 CCA
TAFEWN
TAF COR
KEWN 052035Z 0521/0618 03009KT P6SM SHRA OVC025
      TEMPO 0521/0522 5SM RA BKN009
     FM060100 VRB04KT 6SM BR BKN015
     FM060500 34005KT 6SM BR OVC007
     FM061600 29007KT P6SM OVC020=



000
FTUS42 KMHX 052030 AAA
TAFEWN
TAF AMD
KEWN 052030Z 0521/0618 03009KT P6SM SHRA OVC025
      TEMPO 0521/0522 5SM TSRA BKN009CB
     FM060100 VRB04KT 6SM BR BKN015
     FM060500 34005KT 6SM BR OVC007
     FM061600 29007KT P6SM OVC020=



000
FTUS42 KMHX 051753
TAFEWN
TAF
KEWN 051753Z 0518/0618 03009KT P6SM SHRA OVC025
     FM060100 VRB04KT 6SM BR BKN015
     FM060500 34005KT 6SM BR OVC007
     FM061600 29007KT P6SM OVC020=



000
FTUS42 KMHX 051753
TAFEWN
TAF
KEWN 051753Z 0518/0618 03009KT P6SM SHRA OVC025
     FM060100 VRB04KT 6SM BR BKN015
     FM060500 34005KT 6SM BR OVC007
     FM061600 29007KT P6SM OVC020=



000
FTUS42 KMHX 051141
TAFEWN
TAF
KEWN 051141Z 0512/0612 08005KT P6SM OVC012
     FM051600 VRB04KT 6SM -SHRA SCT007 BKN015
     FM051800 10005KT 6SM SHRA BKN010
     FM052000 35005KT 6SM SHRA OVC015
     FM060200 VRB03KT P6SM VCSH OVC007=



000
FTUS42 KMHX 051141
TAFEWN
TAF
KEWN 051141Z 0512/0612 08005KT P6SM OVC012
     FM051600 VRB04KT 6SM -SHRA SCT007 BKN015
     FM051800 10005KT 6SM SHRA BKN010
     FM052000 35005KT 6SM SHRA OVC015
     FM060200 VRB03KT P6SM VCSH OVC007=



000
FTUS42 KMHX 050539
TAFEWN
TAF
KEWN 050539Z 0506/0606 08005KT P6SM OVC005
     FM050900 08004KT 3SM BR OVC005
     FM051200 VRB03KT P6SM BKN007
     FM051700 VRB03KT P6SM -SHRA OVC015
     FM052300 30005KT P6SM VCSH BKN025
     FM060500 VRB04KT P6SM BKN030=



000
FTUS42 KMHX 050354 AAA
TAFEWN
TAF AMD
KEWN 050354Z 0504/0524 07005KT 6SM BR BKN006
     FM051300 VRB03KT P6SM BKN015
     FM051500 VRB05KT P6SM BKN035
     FM051700 VRB05KT 6SM -SHRA BKN040=



000
FTUS42 KMHX 042324
TAFEWN
TAF
KEWN 042324Z 0500/0524 VRB04KT P6SM SCT080
     FM050800 00000KT 3SM BR BKN006
     FM051300 VRB03KT P6SM BKN015
     FM051500 VRB05KT P6SM BKN035
     FM051700 VRB05KT 6SM -SHRA BKN040=



000
FTUS42 KMHX 042324
TAFEWN
TAF
KEWN 042324Z 0500/0524 VRB04KT P6SM SCT080
     FM050800 00000KT 3SM BR BKN006
     FM051300 VRB03KT P6SM BKN015
     FM051500 VRB05KT P6SM BKN035
     FM051700 VRB05KT 6SM -SHRA BKN040=



000
FTUS42 KMHX 041759
TAFEWN
TAF
KEWN 041759Z 0418/0518 30009KT P6SM SCT050
     FM042100 31006KT P6SM VCSH FEW040 BKN100
     FM050600 00000KT 4SM BR BKN100
     FM050900 06002KT 3SM BR OVC007
     FM051100 03002KT 4SM BR BKN100
     FM051300 28006KT P6SM SCT250=



000
FTUS42 KMHX 041759
TAFEWN
TAF
KEWN 041759Z 0418/0518 30009KT P6SM SCT050
     FM042100 31006KT P6SM VCSH FEW040 BKN100
     FM050600 00000KT 4SM BR BKN100
     FM050900 06002KT 3SM BR OVC007
     FM051100 03002KT 4SM BR BKN100
     FM051300 28006KT P6SM SCT250=



000
FTUS42 KMHX 041154 AAA
TAFEWN
TAF AMD
KEWN 041154Z 0412/0512 00000KT 6SM BR VCTS OVC020CB
     FM041400 VRB04KT P6SM VCSH BKN035
     FM041700 27006KT P6SM BKN050
     FM042100 28006KT P6SM SCT090
     FM050800 00000KT 5SM BR SCT250=



000
FTUS42 KMHX 041135
TAFEWN
TAF
KEWN 041135Z 0412/0512 00000KT P6SM VCSH OVC020
     FM041400 VRB04KT P6SM VCSH BKN035
     FM041700 27006KT P6SM BKN050
     FM042100 28006KT P6SM SCT090
     FM050800 00000KT 5SM BR SCT250=



000
FTUS42 KMHX 041051 AAA
TAFEWN
TAF AMD
KEWN 041051Z 0411/0506 22003KT P6SM VCSH BKN020
      TEMPO 0411/0412 5SM TSRA BKN015CB
     FM041300 00000KT P6SM VCSH BKN025
     FM041600 27007KT P6SM BKN040
     FM041800 26007KT P6SM SCT040
     FM050000 00000KT P6SM SCT250=



000
FTUS42 KMHX 040545
TAFEWN
TAF
KEWN 040545Z 0406/0506 22003KT 6SM BR VCSH SCT005 BKN015
     FM041300 00000KT P6SM VCSH BKN015
     FM041600 27007KT P6SM BKN040
     FM041800 26007KT P6SM SCT040
     FM050000 00000KT P6SM SCT250=



000
FTUS42 KMHX 040306 AAB
TAFEWN
TAF AMD
KEWN 040306Z 0403/0424 VRB04KT P6SM VCTS SCT025 BKN050CB
      TEMPO 0403/0404 BKN015CB
     FM040800 VRB03KT 3SM BR BKN007
     FM041200 26004KT P6SM BKN025
     FM041600 25008KT P6SM VCSH BKN035=



000
FTUS42 KMHX 040232 AAA
TAFEWN
TAF AMD
KEWN 040232Z 0403/0424 VRB06KT P6SM BKN007
     FM040301 21004KT P6SM VCTS SCT025 BKN050CB
     FM040800 VRB03KT 3SM BR BKN007
     FM041200 26004KT P6SM BKN025
     FM041600 25008KT P6SM VCSH BKN035=



000
FTUS42 KMHX 032328
TAFEWN
TAF
KEWN 032328Z 0400/0424 19007KT P6SM SCT050
     FM040200 21004KT P6SM VCTS SCT025 BKN050CB
     FM040800 VRB03KT 3SM BR BKN007
     FM041200 26004KT P6SM BKN025
     FM041600 25008KT P6SM VCSH BKN035=



000
FTUS42 KMHX 031815 AAE
TAFEWN
TAF AMD
KEWN 031815Z 0318/0418 20011KT P6SM SCT080
     FM032300 23009KT P6SM VCTS BKN040CB
     FM040500 VRB04KT 3SM BR OVC025
     FM040700 VRB03KT 2SM BR OVC005
     FM041300 25005KT P6SM OVC007
     FM041400 24006KT P6SM OVC100=



000
FTUS42 KMHX 031757 AAD
TAFEWN
TAF AMD
KEWN 031757Z 0318/0418 20011KT P6SM SCT080
     FM032300 23009KT P6SM VCTS BKN040CB
     FM040500 VRB04KT 3SM BR OVC025
     FM040700 VRB03KT 2SM BR OVC004
     FM041300 25005KT P6SM OVC007
     FM041400 24006KT P6SM OVC100=



000
FTUS42 KMHX 031314 AAC
TAFEWN
TAF AMD
KEWN 031314Z 0313/0412 20008KT 4SM RA BKN060 OVC090
     FM031500 21008KT 6SM SHRA OVC100
     FM031700 22009KT P6SM BKN040
     FM032200 21009KT P6SM VCTS SCT040CB BKN200
     FM040500 VRB03KT P6SM OVC050
     FM040700 00000KT 3SM BR SCT005 BKN015=



000
FTUS42 KMHX 031314 AAC
TAFEWN
TAF AMD
KEWN 031314Z 0313/0412 20008KT 4SM RA BKN060 OVC090
     FM031500 21008KT 6SM SHRA OVC100
     FM031700 22009KT P6SM BKN040
     FM032200 21009KT P6SM VCTS SCT040CB BKN200
     FM040500 VRB03KT P6SM OVC050
     FM040700 00000KT 3SM BR SCT005 BKN015=



000
FTUS42 KMHX 031141 AAB
TAFEWN
TAF AMD
KEWN 031141Z 0312/0412 20008KT 6SM SHRA OVC025
      TEMPO 0312/0313 4SM TS SCT008 OVC015CB
     FM031700 22009KT P6SM BKN040
     FM032200 21009KT P6SM VCTS SCT040CB BKN200
     FM040500 VRB03KT P6SM OVC050
     FM040700 00000KT 3SM BR SCT005 BKN015=



    US Dept of Commerce
    National Oceanic and Atmospheric Administration
    National Weather Service
    1325 East West Highway
    Silver Spring, MD 20910
    Page Author: NWS Internet Services Team
Disclaimer
Information Quality
Credits
Glossary
Privacy Policy
Freedom of Information Act (FOIA)
About Us
Career Opportunities